sensor_id;sensor_type;location;lat;lon;timestamp;P1;durP1;ratioP1;P2;durP2;ratioP2
55800;SDS011;41730;51.960;20.158;2023-06-01T00:01:49;11.40;;;4.60;;
55800;SDS011;41730;51.960;20.158;2023-06-01T00:04:18;7.10;;;4.60;;
55800;SDS011;41730;51.960;20.158;2023-06-01T00:06:47;8.50;;;4.40;;
55800;SDS011;41730;51.960;20.158;2023-06-01T00:09:19;7.90;;;3.90;;
55800;SDS011;41730;51.960;20.158;2023-06-01T00:11:49;8.20;;;4.40;;
55800;SDS011;41730;51.960;20.158;2023-06-01T00:14:18;8.70;;;4.40;;
55800;SDS011;41730;51.960;20.158;2023-06-01T00:16:47;9.10;;;4.00;;
55800;SDS011;41730;51.960;20.158;2023-06-01T00:19:17;6.90;;;4.00;;
55800;SDS011;41730;51.960;20.158;2023-06-01T00:21:47;8.30;;;4.20;;
55800;SDS011;41730;51.960;20.158;2023-06-01T00:24:17;7.10;;;3.90;;
55800;SDS011;41730;51.960;20.158;2023-06-01T00:26:46;9.30;;;4.30;;
55800;SDS011;41730;51.960;20.158;2023-06-01T00:29:16;8.40;;;4.00;;
55800;SDS011;41730;51.960;20.158;2023-06-01T00:31:45;8.60;;;3.60;;
55800;SDS011;41730;51.960;20.158;2023-06-01T00:34:15;7.90;;;4.30;;
55800;SDS011;41730;51.960;20.158;2023-06-01T00:36:44;8.80;;;4.60;;
55800;SDS011;41730;51.960;20.158;2023-06-01T00:39:14;7.10;;;4.20;;
55800;SDS011;41730;51.960;20.158;2023-06-01T00:41:43;8.80;;;3.90;;
55800;SDS011;41730;51.960;20.158;2023-06-01T00:44:12;8.60;;;3.60;;
55800;SDS011;41730;51.960;20.158;2023-06-01T00:46:41;7.00;;;3.80;;
55800;SDS011;41730;51.960;20.158;2023-06-01T00:49:10;7.80;;;4.00;;
55800;SDS011;41730;51.960;20.158;2023-06-01T00:51:39;8.60;;;4.00;;
55800;SDS011;41730;51.960;20.158;2023-06-01T00:54:08;6.80;;;3.40;;
55800;SDS011;41730;51.960;20.158;2023-06-01T00:56:38;8.10;;;3.60;;
55800;SDS011;41730;51.960;20.158;2023-06-01T00:59:07;8.10;;;4.00;;
55800;SDS011;41730;51.960;20.158;2023-06-01T01:01:36;7.40;;;3.70;;
55800;SDS011;41730;51.960;20.158;2023-06-01T01:04:06;6.40;;;3.50;;
55800;SDS011;41730;51.960;20.158;2023-06-01T01:06:39;7.60;;;3.50;;
55800;SDS011;41730;51.960;20.158;2023-06-01T01:09:19;7.40;;;3.70;;
55800;SDS011;41730;51.960;20.158;2023-06-01T01:11:56;10.00;;;3.70;;
55800;SDS011;41730;51.960;20.158;2023-06-01T01:14:30;6.50;;;3.60;;
55800;SDS011;41730;51.960;20.158;2023-06-01T01:17:06;5.30;;;3.30;;
55800;SDS011;41730;51.960;20.158;2023-06-01T01:19:53;6.30;;;3.50;;
55800;SDS011;41730;51.960;20.158;2023-06-01T01:22:33;7.90;;;3.80;;
55800;SDS011;41730;51.960;20.158;2023-06-01T01:25:20;7.80;;;3.80;;
55800;SDS011;41730;51.960;20.158;2023-06-01T01:28:20;8.10;;;3.80;;
55800;SDS011;41730;51.960;20.158;2023-06-01T01:31:04;7.90;;;3.70;;
55800;SDS011;41730;51.960;20.158;2023-06-01T01:33:36;9.00;;;4.10;;
55800;SDS011;41730;51.960;20.158;2023-06-01T01:36:06;7.60;;;3.90;;
55800;SDS011;41730;51.960;20.158;2023-06-01T01:38:36;10.70;;;4.10;;
55800;SDS011;41730;51.960;20.158;2023-06-01T01:41:07;8.80;;;4.10;;
55800;SDS011;41730;51.960;20.158;2023-06-01T01:43:36;6.70;;;3.90;;
55800;SDS011;41730;51.960;20.158;2023-06-01T01:46:10;9.10;;;4.10;;
55800;SDS011;41730;51.960;20.158;2023-06-01T01:48:50;8.40;;;3.80;;
55800;SDS011;41730;51.960;20.158;2023-06-01T01:51:33;7.90;;;3.90;;
55800;SDS011;41730;51.960;20.158;2023-06-01T01:54:05;9.50;;;3.90;;
55800;SDS011;41730;51.960;20.158;2023-06-01T01:56:36;6.40;;;3.70;;
55800;SDS011;41730;51.960;20.158;2023-06-01T01:59:06;6.80;;;3.60;;
55800;SDS011;41730;51.960;20.158;2023-06-01T02:01:36;7.00;;;3.80;;
55800;SDS011;41730;51.960;20.158;2023-06-01T02:04:08;7.00;;;3.70;;
55800;SDS011;41730;51.960;20.158;2023-06-01T02:06:37;7.20;;;3.70;;
55800;SDS011;41730;51.960;20.158;2023-06-01T02:09:06;7.40;;;3.60;;
55800;SDS011;41730;51.960;20.158;2023-06-01T02:11:35;5.90;;;3.30;;
55800;SDS011;41730;51.960;20.158;2023-06-01T02:14:05;10.00;;;4.00;;
55800;SDS011;41730;51.960;20.158;2023-06-01T02:16:34;6.70;;;3.50;;
55800;SDS011;41730;51.960;20.158;2023-06-01T02:19:04;7.00;;;3.70;;
55800;SDS011;41730;51.960;20.158;2023-06-01T02:21:33;7.10;;;3.90;;
55800;SDS011;41730;51.960;20.158;2023-06-01T02:24:02;6.80;;;3.50;;
55800;SDS011;41730;51.960;20.158;2023-06-01T02:26:34;8.00;;;3.60;;
55800;SDS011;41730;51.960;20.158;2023-06-01T02:29:03;6.30;;;3.60;;
55800;SDS011;41730;51.960;20.158;2023-06-01T02:31:33;8.00;;;3.40;;
55800;SDS011;41730;51.960;20.158;2023-06-01T02:34:02;7.20;;;3.40;;
55800;SDS011;41730;51.960;20.158;2023-06-01T02:36:31;7.90;;;3.40;;
55800;SDS011;41730;51.960;20.158;2023-06-01T02:39:01;6.40;;;3.50;;
55800;SDS011;41730;51.960;20.158;2023-06-01T02:41:31;6.50;;;3.70;;
55800;SDS011;41730;51.960;20.158;2023-06-01T02:44:00;6.50;;;3.70;;
55800;SDS011;41730;51.960;20.158;2023-06-01T02:46:29;6.70;;;3.80;;
55800;SDS011;41730;51.960;20.158;2023-06-01T02:48:58;7.40;;;3.90;;
55800;SDS011;41730;51.960;20.158;2023-06-01T02:51:27;7.70;;;3.60;;
55800;SDS011;41730;51.960;20.158;2023-06-01T02:53:59;5.90;;;3.10;;
55800;SDS011;41730;51.960;20.158;2023-06-01T02:56:31;7.60;;;3.50;;
55800;SDS011;41730;51.960;20.158;2023-06-01T02:59:00;7.00;;;4.00;;
55800;SDS011;41730;51.960;20.158;2023-06-01T03:01:30;7.10;;;4.10;;
55800;SDS011;41730;51.960;20.158;2023-06-01T03:04:02;9.30;;;3.80;;
55800;SDS011;41730;51.960;20.158;2023-06-01T03:06:31;7.80;;;3.70;;
55800;SDS011;41730;51.960;20.158;2023-06-01T03:09:05;5.00;;;3.30;;
55800;SDS011;41730;51.960;20.158;2023-06-01T03:11:40;8.60;;;3.60;;
55800;SDS011;41730;51.960;20.158;2023-06-01T03:14:09;6.30;;;3.90;;
55800;SDS011;41730;51.960;20.158;2023-06-01T03:16:39;6.60;;;3.50;;
55800;SDS011;41730;51.960;20.158;2023-06-01T03:19:08;6.90;;;3.80;;
55800;SDS011;41730;51.960;20.158;2023-06-01T03:21:37;8.60;;;4.40;;
55800;SDS011;41730;51.960;20.158;2023-06-01T03:24:07;9.90;;;4.10;;
55800;SDS011;41730;51.960;20.158;2023-06-01T03:26:39;7.50;;;4.00;;
55800;SDS011;41730;51.960;20.158;2023-06-01T03:29:08;8.20;;;4.10;;
55800;SDS011;41730;51.960;20.158;2023-06-01T03:35:14;6.30;;;3.40;;
55800;SDS011;41730;51.960;20.158;2023-06-01T03:38:13;9.10;;;3.80;;
55800;SDS011;41730;51.960;20.158;2023-06-01T03:40:42;6.30;;;3.40;;
55800;SDS011;41730;51.960;20.158;2023-06-01T03:43:12;6.60;;;3.40;;
55800;SDS011;41730;51.960;20.158;2023-06-01T03:45:41;5.50;;;3.30;;
55800;SDS011;41730;51.960;20.158;2023-06-01T03:48:11;7.20;;;3.40;;
55800;SDS011;41730;51.960;20.158;2023-06-01T03:50:40;6.40;;;3.50;;
55800;SDS011;41730;51.960;20.158;2023-06-01T03:53:10;8.00;;;3.60;;
55800;SDS011;41730;51.960;20.158;2023-06-01T03:55:39;7.60;;;3.40;;
55800;SDS011;41730;51.960;20.158;2023-06-01T03:58:08;5.70;;;3.40;;
55800;SDS011;41730;51.960;20.158;2023-06-01T04:00:37;6.80;;;3.70;;
55800;SDS011;41730;51.960;20.158;2023-06-01T04:03:08;6.30;;;3.40;;
55800;SDS011;41730;51.960;20.158;2023-06-01T04:05:38;7.40;;;3.70;;
55800;SDS011;41730;51.960;20.158;2023-06-01T04:08:08;7.00;;;3.50;;
55800;SDS011;41730;51.960;20.158;2023-06-01T04:10:37;7.90;;;3.10;;
55800;SDS011;41730;51.960;20.158;2023-06-01T04:13:07;6.10;;;2.80;;
55800;SDS011;41730;51.960;20.158;2023-06-01T04:15:37;8.20;;;3.40;;
55800;SDS011;41730;51.960;20.158;2023-06-01T04:18:06;7.70;;;3.60;;
55800;SDS011;41730;51.960;20.158;2023-06-01T04:20:35;7.20;;;3.30;;
55800;SDS011;41730;51.960;20.158;2023-06-01T04:23:04;8.20;;;3.40;;
55800;SDS011;41730;51.960;20.158;2023-06-01T04:25:33;5.90;;;3.10;;
55800;SDS011;41730;51.960;20.158;2023-06-01T04:28:02;5.20;;;3.20;;
55800;SDS011;41730;51.960;20.158;2023-06-01T04:30:31;10.60;;;3.30;;
55800;SDS011;41730;51.960;20.158;2023-06-01T04:33:00;7.70;;;2.80;;
55800;SDS011;41730;51.960;20.158;2023-06-01T04:35:30;9.10;;;2.90;;
55800;SDS011;41730;51.960;20.158;2023-06-01T04:38:00;6.40;;;2.80;;
55800;SDS011;41730;51.960;20.158;2023-06-01T04:40:29;7.60;;;3.00;;
55800;SDS011;41730;51.960;20.158;2023-06-01T04:42:59;6.50;;;2.80;;
55800;SDS011;41730;51.960;20.158;2023-06-01T04:45:30;6.50;;;3.20;;
55800;SDS011;41730;51.960;20.158;2023-06-01T04:48:00;10.50;;;3.40;;
55800;SDS011;41730;51.960;20.158;2023-06-01T04:50:30;8.80;;;3.00;;
55800;SDS011;41730;51.960;20.158;2023-06-01T04:53:00;6.60;;;2.80;;
55800;SDS011;41730;51.960;20.158;2023-06-01T04:55:29;5.70;;;2.60;;
55800;SDS011;41730;51.960;20.158;2023-06-01T04:57:59;4.60;;;2.40;;
55800;SDS011;41730;51.960;20.158;2023-06-01T05:00:28;6.60;;;2.30;;
55800;SDS011;41730;51.960;20.158;2023-06-01T05:02:57;8.30;;;2.60;;
55800;SDS011;41730;51.960;20.158;2023-06-01T05:05:27;10.70;;;2.50;;
55800;SDS011;41730;51.960;20.158;2023-06-01T05:07:57;11.50;;;3.50;;
55800;SDS011;41730;51.960;20.158;2023-06-01T05:10:25;8.70;;;2.80;;
55800;SDS011;41730;51.960;20.158;2023-06-01T05:12:54;4.60;;;2.70;;
55800;SDS011;41730;51.960;20.158;2023-06-01T05:15:23;13.10;;;2.90;;
55800;SDS011;41730;51.960;20.158;2023-06-01T05:17:55;11.50;;;3.00;;
55800;SDS011;41730;51.960;20.158;2023-06-01T05:20:24;13.10;;;2.90;;
55800;SDS011;41730;51.960;20.158;2023-06-01T05:22:53;22.80;;;4.10;;
55800;SDS011;41730;51.960;20.158;2023-06-01T05:25:23;4.80;;;2.30;;
55800;SDS011;41730;51.960;20.158;2023-06-01T05:27:52;14.80;;;2.50;;
55800;SDS011;41730;51.960;20.158;2023-06-01T05:30:21;17.20;;;4.10;;
55800;SDS011;41730;51.960;20.158;2023-06-01T05:32:50;7.40;;;2.10;;
55800;SDS011;41730;51.960;20.158;2023-06-01T05:35:19;4.90;;;1.80;;
55800;SDS011;41730;51.960;20.158;2023-06-01T05:37:48;4.20;;;2.00;;
55800;SDS011;41730;51.960;20.158;2023-06-01T05:40:17;4.60;;;2.30;;
55800;SDS011;41730;51.960;20.158;2023-06-01T05:42:46;4.80;;;2.20;;
55800;SDS011;41730;51.960;20.158;2023-06-01T05:45:15;5.00;;;2.00;;
55800;SDS011;41730;51.960;20.158;2023-06-01T05:47:44;8.80;;;2.00;;
55800;SDS011;41730;51.960;20.158;2023-06-01T05:50:14;12.50;;;2.80;;
55800;SDS011;41730;51.960;20.158;2023-06-01T05:52:43;7.10;;;2.00;;
55800;SDS011;41730;51.960;20.158;2023-06-01T05:55:13;4.50;;;2.10;;
55800;SDS011;41730;51.960;20.158;2023-06-01T05:57:45;4.90;;;2.00;;
55800;SDS011;41730;51.960;20.158;2023-06-01T06:00:16;7.70;;;2.20;;
55800;SDS011;41730;51.960;20.158;2023-06-01T06:02:46;3.50;;;2.40;;
55800;SDS011;41730;51.960;20.158;2023-06-01T06:05:16;4.10;;;1.80;;
55800;SDS011;41730;51.960;20.158;2023-06-01T06:07:45;5.20;;;2.20;;
55800;SDS011;41730;51.960;20.158;2023-06-01T06:10:15;4.50;;;2.00;;
55800;SDS011;41730;51.960;20.158;2023-06-01T06:12:44;5.90;;;2.10;;
55800;SDS011;41730;51.960;20.158;2023-06-01T06:15:13;9.90;;;2.60;;
55800;SDS011;41730;51.960;20.158;2023-06-01T06:17:42;14.60;;;2.60;;
55800;SDS011;41730;51.960;20.158;2023-06-01T06:20:12;5.20;;;2.50;;
55800;SDS011;41730;51.960;20.158;2023-06-01T06:22:42;4.60;;;2.10;;
55800;SDS011;41730;51.960;20.158;2023-06-01T06:25:12;5.00;;;2.20;;
55800;SDS011;41730;51.960;20.158;2023-06-01T06:27:41;5.80;;;2.10;;
55800;SDS011;41730;51.960;20.158;2023-06-01T06:30:11;4.10;;;2.10;;
55800;SDS011;41730;51.960;20.158;2023-06-01T06:32:40;4.90;;;2.00;;
55800;SDS011;41730;51.960;20.158;2023-06-01T06:35:12;3.60;;;1.50;;
55800;SDS011;41730;51.960;20.158;2023-06-01T06:37:46;5.90;;;2.00;;
55800;SDS011;41730;51.960;20.158;2023-06-01T06:40:20;4.70;;;2.10;;
55800;SDS011;41730;51.960;20.158;2023-06-01T06:42:49;12.90;;;2.50;;
55800;SDS011;41730;51.960;20.158;2023-06-01T06:45:18;4.80;;;1.80;;
55800;SDS011;41730;51.960;20.158;2023-06-01T06:47:48;14.20;;;2.40;;
55800;SDS011;41730;51.960;20.158;2023-06-01T06:50:18;6.90;;;1.80;;
55800;SDS011;41730;51.960;20.158;2023-06-01T06:52:47;9.30;;;2.20;;
55800;SDS011;41730;51.960;20.158;2023-06-01T06:55:17;4.50;;;2.00;;
55800;SDS011;41730;51.960;20.158;2023-06-01T06:57:47;3.30;;;1.80;;
55800;SDS011;41730;51.960;20.158;2023-06-01T07:00:17;10.40;;;2.20;;
55800;SDS011;41730;51.960;20.158;2023-06-01T07:02:47;9.20;;;2.10;;
55800;SDS011;41730;51.960;20.158;2023-06-01T07:05:16;23.60;;;4.20;;
55800;SDS011;41730;51.960;20.158;2023-06-01T07:07:46;5.90;;;2.50;;
55800;SDS011;41730;51.960;20.158;2023-06-01T07:10:16;4.60;;;2.10;;
55800;SDS011;41730;51.960;20.158;2023-06-01T07:12:45;9.20;;;2.00;;
55800;SDS011;41730;51.960;20.158;2023-06-01T07:15:14;3.80;;;1.80;;
55800;SDS011;41730;51.960;20.158;2023-06-01T07:17:43;5.40;;;1.60;;
55800;SDS011;41730;51.960;20.158;2023-06-01T07:20:13;9.70;;;1.90;;
55800;SDS011;41730;51.960;20.158;2023-06-01T07:22:43;5.90;;;1.60;;
55800;SDS011;41730;51.960;20.158;2023-06-01T07:25:12;4.30;;;1.60;;
55800;SDS011;41730;51.960;20.158;2023-06-01T07:27:41;18.50;;;2.70;;
55800;SDS011;41730;51.960;20.158;2023-06-01T07:30:12;7.00;;;1.90;;
55800;SDS011;41730;51.960;20.158;2023-06-01T07:32:42;3.90;;;1.40;;
55800;SDS011;41730;51.960;20.158;2023-06-01T07:35:11;4.60;;;1.50;;
55800;SDS011;41730;51.960;20.158;2023-06-01T07:37:41;5.90;;;1.90;;
55800;SDS011;41730;51.960;20.158;2023-06-01T07:40:11;4.80;;;1.70;;
55800;SDS011;41730;51.960;20.158;2023-06-01T07:42:40;5.20;;;1.50;;
55800;SDS011;41730;51.960;20.158;2023-06-01T07:45:10;4.30;;;1.90;;
55800;SDS011;41730;51.960;20.158;2023-06-01T07:47:40;3.70;;;1.80;;
55800;SDS011;41730;51.960;20.158;2023-06-01T07:50:10;4.00;;;1.80;;
55800;SDS011;41730;51.960;20.158;2023-06-01T07:52:39;5.30;;;1.80;;
55800;SDS011;41730;51.960;20.158;2023-06-01T07:55:09;3.20;;;1.40;;
55800;SDS011;41730;51.960;20.158;2023-06-01T07:57:38;4.30;;;1.70;;
55800;SDS011;41730;51.960;20.158;2023-06-01T08:00:09;4.40;;;1.80;;
55800;SDS011;41730;51.960;20.158;2023-06-01T08:02:39;4.50;;;1.40;;
55800;SDS011;41730;51.960;20.158;2023-06-01T08:05:10;7.00;;;1.90;;
55800;SDS011;41730;51.960;20.158;2023-06-01T08:07:41;3.50;;;1.50;;
55800;SDS011;41730;51.960;20.158;2023-06-01T08:10:12;6.90;;;1.40;;
55800;SDS011;41730;51.960;20.158;2023-06-01T08:12:42;4.20;;;1.20;;
55800;SDS011;41730;51.960;20.158;2023-06-01T08:15:11;9.00;;;1.90;;
55800;SDS011;41730;51.960;20.158;2023-06-01T08:17:41;5.50;;;1.70;;
55800;SDS011;41730;51.960;20.158;2023-06-01T08:20:10;6.40;;;1.60;;
55800;SDS011;41730;51.960;20.158;2023-06-01T08:22:39;3.00;;;1.30;;
55800;SDS011;41730;51.960;20.158;2023-06-01T08:25:09;8.80;;;1.40;;
55800;SDS011;41730;51.960;20.158;2023-06-01T08:27:38;2.80;;;1.10;;
55800;SDS011;41730;51.960;20.158;2023-06-01T08:30:09;4.20;;;1.30;;
55800;SDS011;41730;51.960;20.158;2023-06-01T08:32:38;4.10;;;1.30;;
55800;SDS011;41730;51.960;20.158;2023-06-01T08:35:08;2.60;;;1.20;;
55800;SDS011;41730;51.960;20.158;2023-06-01T08:37:37;5.20;;;1.40;;
55800;SDS011;41730;51.960;20.158;2023-06-01T08:40:08;2.90;;;1.30;;
55800;SDS011;41730;51.960;20.158;2023-06-01T08:42:42;2.80;;;1.10;;
55800;SDS011;41730;51.960;20.158;2023-06-01T08:45:18;4.80;;;1.20;;
55800;SDS011;41730;51.960;20.158;2023-06-01T08:47:48;2.20;;;1.20;;
55800;SDS011;41730;51.960;20.158;2023-06-01T08:50:20;4.90;;;1.40;;
55800;SDS011;41730;51.960;20.158;2023-06-01T08:52:49;2.80;;;1.20;;
55800;SDS011;41730;51.960;20.158;2023-06-01T08:55:22;3.20;;;1.20;;
55800;SDS011;41730;51.960;20.158;2023-06-01T08:57:52;4.70;;;1.40;;
55800;SDS011;41730;51.960;20.158;2023-06-01T09:00:22;3.30;;;1.10;;
55800;SDS011;41730;51.960;20.158;2023-06-01T09:02:54;17.80;;;2.00;;
55800;SDS011;41730;51.960;20.158;2023-06-01T09:05:25;4.90;;;1.30;;
55800;SDS011;41730;51.960;20.158;2023-06-01T09:07:56;3.40;;;1.20;;
55800;SDS011;41730;51.960;20.158;2023-06-01T09:10:25;4.40;;;1.60;;
55800;SDS011;41730;51.960;20.158;2023-06-01T09:12:55;12.70;;;1.70;;
55800;SDS011;41730;51.960;20.158;2023-06-01T09:15:24;8.60;;;1.40;;
55800;SDS011;41730;51.960;20.158;2023-06-01T09:18:04;3.10;;;1.40;;
55800;SDS011;41730;51.960;20.158;2023-06-01T09:20:35;2.10;;;1.10;;
55800;SDS011;41730;51.960;20.158;2023-06-01T09:23:06;3.30;;;1.60;;
55800;SDS011;41730;51.960;20.158;2023-06-01T09:25:35;2.90;;;1.20;;
55800;SDS011;41730;51.960;20.158;2023-06-01T09:28:05;3.50;;;1.60;;
55800;SDS011;41730;51.960;20.158;2023-06-01T09:30:40;5.90;;;1.30;;
55800;SDS011;41730;51.960;20.158;2023-06-01T09:33:12;5.00;;;1.40;;
55800;SDS011;41730;51.960;20.158;2023-06-01T09:35:43;10.00;;;1.80;;
55800;SDS011;41730;51.960;20.158;2023-06-01T09:38:19;4.70;;;1.60;;
55800;SDS011;41730;51.960;20.158;2023-06-01T09:40:56;2.20;;;1.30;;
55800;SDS011;41730;51.960;20.158;2023-06-01T09:43:26;4.30;;;1.70;;
55800;SDS011;41730;51.960;20.158;2023-06-01T09:46:05;6.50;;;1.40;;
55800;SDS011;41730;51.960;20.158;2023-06-01T09:48:35;7.00;;;1.30;;
55800;SDS011;41730;51.960;20.158;2023-06-01T09:51:05;7.00;;;1.50;;
55800;SDS011;41730;51.960;20.158;2023-06-01T09:53:50;8.50;;;1.50;;
55800;SDS011;41730;51.960;20.158;2023-06-01T09:56:19;13.10;;;1.70;;
55800;SDS011;41730;51.960;20.158;2023-06-01T09:58:48;2.90;;;1.30;;
55800;SDS011;41730;51.960;20.158;2023-06-01T10:01:27;2.30;;;1.20;;
55800;SDS011;41730;51.960;20.158;2023-06-01T10:04:00;2.70;;;1.40;;
55800;SDS011;41730;51.960;20.158;2023-06-01T10:06:33;4.00;;;1.50;;
55800;SDS011;41730;51.960;20.158;2023-06-01T10:09:06;2.80;;;1.40;;
55800;SDS011;41730;51.960;20.158;2023-06-01T10:11:42;3.40;;;1.80;;
55800;SDS011;41730;51.960;20.158;2023-06-01T10:14:12;5.70;;;1.90;;
55800;SDS011;41730;51.960;20.158;2023-06-01T10:16:42;9.60;;;2.00;;
55800;SDS011;41730;51.960;20.158;2023-06-01T10:19:11;2.10;;;1.20;;
55800;SDS011;41730;51.960;20.158;2023-06-01T10:21:41;4.60;;;1.80;;
55800;SDS011;41730;51.960;20.158;2023-06-01T10:24:12;4.20;;;1.60;;
55800;SDS011;41730;51.960;20.158;2023-06-01T10:26:43;3.80;;;1.70;;
55800;SDS011;41730;51.960;20.158;2023-06-01T10:29:19;3.80;;;1.50;;
55800;SDS011;41730;51.960;20.158;2023-06-01T10:31:48;3.40;;;1.70;;
55800;SDS011;41730;51.960;20.158;2023-06-01T10:34:35;7.80;;;1.60;;
55800;SDS011;41730;51.960;20.158;2023-06-01T10:37:12;5.40;;;1.80;;
55800;SDS011;41730;51.960;20.158;2023-06-01T10:39:42;3.30;;;1.70;;
55800;SDS011;41730;51.960;20.158;2023-06-01T10:48:07;19.40;;;2.70;;
55800;SDS011;41730;51.960;20.158;2023-06-01T10:50:38;3.30;;;1.60;;
55800;SDS011;41730;51.960;20.158;2023-06-01T10:53:27;5.90;;;1.70;;
55800;SDS011;41730;51.960;20.158;2023-06-01T10:58:52;4.50;;;1.80;;
55800;SDS011;41730;51.960;20.158;2023-06-01T11:01:41;5.30;;;1.70;;
55800;SDS011;41730;51.960;20.158;2023-06-01T11:04:11;4.40;;;1.60;;
55800;SDS011;41730;51.960;20.158;2023-06-01T11:06:41;3.80;;;1.60;;
55800;SDS011;41730;51.960;20.158;2023-06-01T11:09:11;2.70;;;1.40;;
55800;SDS011;41730;51.960;20.158;2023-06-01T11:14:36;4.90;;;1.70;;
55800;SDS011;41730;51.960;20.158;2023-06-01T11:17:28;3.90;;;1.60;;
55800;SDS011;41730;51.960;20.158;2023-06-01T11:20:00;6.50;;;1.70;;
55800;SDS011;41730;51.960;20.158;2023-06-01T11:25:06;4.50;;;1.50;;
55800;SDS011;41730;51.960;20.158;2023-06-01T11:27:42;8.50;;;1.80;;
55800;SDS011;41730;51.960;20.158;2023-06-01T11:30:17;4.60;;;1.70;;
55800;SDS011;41730;51.960;20.158;2023-06-01T11:32:48;3.20;;;1.80;;
55800;SDS011;41730;51.960;20.158;2023-06-01T11:35:23;3.90;;;1.80;;
55800;SDS011;41730;51.960;20.158;2023-06-01T11:37:54;3.30;;;1.50;;
55800;SDS011;41730;51.960;20.158;2023-06-01T11:40:24;4.90;;;2.30;;
55800;SDS011;41730;51.960;20.158;2023-06-01T11:42:59;5.60;;;1.80;;
55800;SDS011;41730;51.960;20.158;2023-06-01T11:45:28;4.50;;;1.80;;
55800;SDS011;41730;51.960;20.158;2023-06-01T11:47:58;3.50;;;1.80;;
55800;SDS011;41730;51.960;20.158;2023-06-01T11:50:45;4.40;;;1.80;;
55800;SDS011;41730;51.960;20.158;2023-06-01T11:53:15;15.80;;;2.70;;
55800;SDS011;41730;51.960;20.158;2023-06-01T11:55:53;6.70;;;2.20;;
55800;SDS011;41730;51.960;20.158;2023-06-01T11:58:23;4.40;;;2.10;;
55800;SDS011;41730;51.960;20.158;2023-06-01T12:00:53;15.50;;;2.70;;
55800;SDS011;41730;51.960;20.158;2023-06-01T12:03:23;37.40;;;3.40;;
55800;SDS011;41730;51.960;20.158;2023-06-01T12:05:54;9.50;;;2.10;;
55800;SDS011;41730;51.960;20.158;2023-06-01T12:08:24;14.00;;;2.50;;
55800;SDS011;41730;51.960;20.158;2023-06-01T12:10:55;24.80;;;3.10;;
55800;SDS011;41730;51.960;20.158;2023-06-01T12:13:24;13.80;;;2.50;;
55800;SDS011;41730;51.960;20.158;2023-06-01T12:15:54;22.00;;;2.60;;
55800;SDS011;41730;51.960;20.158;2023-06-01T12:18:30;9.60;;;1.90;;
55800;SDS011;41730;51.960;20.158;2023-06-01T12:21:00;8.50;;;2.10;;
55800;SDS011;41730;51.960;20.158;2023-06-01T12:23:38;2.70;;;1.50;;
55800;SDS011;41730;51.960;20.158;2023-06-01T12:26:08;3.30;;;1.60;;
55800;SDS011;41730;51.960;20.158;2023-06-01T12:28:47;4.60;;;1.70;;
55800;SDS011;41730;51.960;20.158;2023-06-01T12:31:25;4.30;;;1.80;;
55800;SDS011;41730;51.960;20.158;2023-06-01T12:33:55;6.10;;;1.80;;
55800;SDS011;41730;51.960;20.158;2023-06-01T12:36:30;4.40;;;1.70;;
55800;SDS011;41730;51.960;20.158;2023-06-01T12:39:00;4.00;;;1.60;;
55800;SDS011;41730;51.960;20.158;2023-06-01T12:41:30;10.20;;;2.20;;
55800;SDS011;41730;51.960;20.158;2023-06-01T12:44:00;5.10;;;1.80;;
55800;SDS011;41730;51.960;20.158;2023-06-01T12:46:29;4.00;;;1.80;;
55800;SDS011;41730;51.960;20.158;2023-06-01T12:49:11;9.70;;;1.90;;
55800;SDS011;41730;51.960;20.158;2023-06-01T12:51:41;7.30;;;1.70;;
55800;SDS011;41730;51.960;20.158;2023-06-01T12:54:12;5.90;;;2.00;;
55800;SDS011;41730;51.960;20.158;2023-06-01T12:56:42;10.60;;;2.20;;
55800;SDS011;41730;51.960;20.158;2023-06-01T12:59:10;7.00;;;1.90;;
55800;SDS011;41730;51.960;20.158;2023-06-01T13:01:40;8.30;;;2.10;;
55800;SDS011;41730;51.960;20.158;2023-06-01T13:04:10;6.70;;;1.80;;
55800;SDS011;41730;51.960;20.158;2023-06-01T13:06:40;6.00;;;2.00;;
55800;SDS011;41730;51.960;20.158;2023-06-01T13:09:11;3.30;;;1.70;;
55800;SDS011;41730;51.960;20.158;2023-06-01T13:11:41;5.80;;;2.20;;
55800;SDS011;41730;51.960;20.158;2023-06-01T13:14:10;6.40;;;1.70;;
55800;SDS011;41730;51.960;20.158;2023-06-01T13:16:39;17.90;;;2.50;;
55800;SDS011;41730;51.960;20.158;2023-06-01T13:19:08;8.70;;;2.00;;
55800;SDS011;41730;51.960;20.158;2023-06-01T13:21:37;14.30;;;2.30;;
55800;SDS011;41730;51.960;20.158;2023-06-01T13:24:06;6.00;;;2.00;;
55800;SDS011;41730;51.960;20.158;2023-06-01T13:26:38;13.00;;;2.80;;
55800;SDS011;41730;51.960;20.158;2023-06-01T13:29:07;11.70;;;2.40;;
55800;SDS011;41730;51.960;20.158;2023-06-01T13:31:37;6.00;;;1.90;;
55800;SDS011;41730;51.960;20.158;2023-06-01T13:34:06;5.60;;;1.70;;
55800;SDS011;41730;51.960;20.158;2023-06-01T13:36:35;5.00;;;1.90;;
55800;SDS011;41730;51.960;20.158;2023-06-01T13:39:05;6.20;;;2.30;;
55800;SDS011;41730;51.960;20.158;2023-06-01T13:41:34;7.40;;;2.00;;
55800;SDS011;41730;51.960;20.158;2023-06-01T13:44:03;5.80;;;1.90;;
55800;SDS011;41730;51.960;20.158;2023-06-01T13:46:33;15.30;;;2.70;;
55800;SDS011;41730;51.960;20.158;2023-06-01T13:49:03;6.60;;;2.30;;
55800;SDS011;41730;51.960;20.158;2023-06-01T13:51:33;3.60;;;1.80;;
55800;SDS011;41730;51.960;20.158;2023-06-01T13:54:05;8.20;;;2.90;;
55800;SDS011;41730;51.960;20.158;2023-06-01T13:56:37;22.50;;;2.90;;
55800;SDS011;41730;51.960;20.158;2023-06-01T13:59:06;33.30;;;3.30;;
55800;SDS011;41730;51.960;20.158;2023-06-01T14:01:35;5.50;;;1.90;;
55800;SDS011;41730;51.960;20.158;2023-06-01T14:04:04;3.80;;;2.20;;
55800;SDS011;41730;51.960;20.158;2023-06-01T14:06:33;11.20;;;2.10;;
55800;SDS011;41730;51.960;20.158;2023-06-01T14:09:02;9.90;;;2.40;;
55800;SDS011;41730;51.960;20.158;2023-06-01T14:11:31;9.70;;;2.30;;
55800;SDS011;41730;51.960;20.158;2023-06-01T14:14:01;9.40;;;2.30;;
55800;SDS011;41730;51.960;20.158;2023-06-01T14:16:29;8.60;;;2.30;;
55800;SDS011;41730;51.960;20.158;2023-06-01T14:18:59;2.50;;;1.40;;
55800;SDS011;41730;51.960;20.158;2023-06-01T14:21:28;4.80;;;1.70;;
55800;SDS011;41730;51.960;20.158;2023-06-01T14:23:59;6.90;;;1.80;;
55800;SDS011;41730;51.960;20.158;2023-06-01T14:26:29;5.20;;;2.00;;
55800;SDS011;41730;51.960;20.158;2023-06-01T14:28:58;5.20;;;1.80;;
55800;SDS011;41730;51.960;20.158;2023-06-01T14:31:28;3.90;;;1.80;;
55800;SDS011;41730;51.960;20.158;2023-06-01T14:33:57;5.20;;;2.10;;
55800;SDS011;41730;51.960;20.158;2023-06-01T14:36:26;6.40;;;1.90;;
55800;SDS011;41730;51.960;20.158;2023-06-01T14:39:13;5.70;;;2.90;;
55800;SDS011;41730;51.960;20.158;2023-06-01T14:41:42;4.30;;;1.80;;
55800;SDS011;41730;51.960;20.158;2023-06-01T14:44:11;4.90;;;2.00;;
55800;SDS011;41730;51.960;20.158;2023-06-01T14:46:41;4.60;;;1.90;;
55800;SDS011;41730;51.960;20.158;2023-06-01T14:49:11;4.90;;;1.80;;
55800;SDS011;41730;51.960;20.158;2023-06-01T14:51:40;8.70;;;2.10;;
55800;SDS011;41730;51.960;20.158;2023-06-01T14:54:09;4.60;;;1.90;;
55800;SDS011;41730;51.960;20.158;2023-06-01T14:56:38;3.60;;;1.90;;
55800;SDS011;41730;51.960;20.158;2023-06-01T14:59:09;60.40;;;7.10;;
55800;SDS011;41730;51.960;20.158;2023-06-01T15:01:38;6.60;;;2.40;;
55800;SDS011;41730;51.960;20.158;2023-06-01T15:04:08;5.60;;;2.10;;
55800;SDS011;41730;51.960;20.158;2023-06-01T15:06:38;3.80;;;2.10;;
55800;SDS011;41730;51.960;20.158;2023-06-01T15:09:08;14.90;;;3.00;;
55800;SDS011;41730;51.960;20.158;2023-06-01T15:11:38;3.20;;;1.80;;
55800;SDS011;41730;51.960;20.158;2023-06-01T15:14:07;3.40;;;1.90;;